Terminal Aerodrome Forecast
Issued by NWS Cleveland, OH

Home | Current Version | Previous Version | Text Only | Print | Product List | Glossary Off
Versions: 1 2 3 4 5 6 7 8 9 10 11 12 13 14 15 16 17 18 19 20 21 22 23 24 25

000
FTUS41 KCLE 170500
TAFCAK
TAF
KCAK 170534Z 1706/1806 24005KT P6SM SCT030 OVC050
      TEMPO 1708/1710 SCT015 OVC030
     FM171000 21010KT 3SM BR SCT009 OVC015
      TEMPO 1710/1714 BKN009 OVC015
     FM171500 21015KT P6SM BKN020 OVC050
     FM171900 20015KT P6SM BKN050
     FM180400 26012KT P6SM BKN025 OVC050=

USA.gov is the U.S. government's official web portal to all federal, state and local government web resources and services.